Time;durP1;ratioP1;P1;durP2;ratioP2;P2;SDS_P1;SDS_P2;PMS_P1;PMS_P2;Temp;Humidity;BMP_temperature;BMP_pressure;BME280_temperature;BME280_humidity;BME280_pressure;Samples;Min_cycle;Max_cycle;Signal;HPM_P1;HPM_P2
2023/10/18 00:02:16;;;;;;;11.03;9.20;;;5.10;99.90;;;;;;5074692;28;20799;-68
2023/10/18 00:04:44;;;;;;;11.10;8.80;;;5.10;99.90;;;;;;5071054;28;20783;-67
2023/10/18 00:07:12;;;;;;;10.20;8.90;;;5.10;99.90;;;;;;5074590;28;20511;-66
2023/10/18 00:09:49;;;;;;;14.30;9.07;;;5.10;99.90;;;;;;5074563;28;20481;-66
2023/10/18 00:12:18;;;;;;;11.53;8.60;;;5.10;99.90;;;;;;5074474;28;20412;-65
2023/10/18 00:14:45;;;;;;;8.40;7.43;;;5.10;99.90;;;;;;5056316;28;20849;-65
2023/10/18 00:17:12;;;;;;;11.17;8.67;;;5.10;99.90;;;;;;5075343;28;20433;-67
2023/10/18 00:19:40;;;;;;;11.73;9.03;;;5.10;99.90;;;;;;5072933;28;20460;-66
2023/10/18 00:22:09;;;;;;;12.97;8.87;;;5.10;99.90;;;;;;5070405;28;20522;-66
2023/10/18 00:24:35;;;;;;;12.17;8.10;;;5.10;99.90;;;;;;5073803;28;20458;-65
2023/10/18 00:27:00;;;;;;;10.53;7.90;;;5.00;99.90;;;;;;5073909;28;20930;-65
2023/10/18 00:29:26;;;;;;;15.10;10.20;;;5.00;99.90;;;;;;5073772;28;20412;-66
2023/10/18 00:31:51;;;;;;;10.73;8.50;;;5.00;99.90;;;;;;5073617;28;20174;-66
2023/10/18 00:34:18;;;;;;;11.23;8.77;;;4.90;99.90;;;;;;5073976;28;20184;-66
2023/10/18 00:36:43;;;;;;;11.50;8.87;;;5.00;99.90;;;;;;5072305;28;20190;-66
2023/10/18 00:39:22;;;;;;;12.87;8.60;;;5.00;99.90;;;;;;5073878;28;20456;-66
2023/10/18 00:41:54;;;;;;;13.47;8.20;;;5.00;99.90;;;;;;5074003;28;20165;-66
2023/10/18 00:44:21;;;;;;;15.40;9.33;;;5.00;99.90;;;;;;5073832;28;20851;-66
2023/10/18 00:46:50;;;;;;;12.60;9.83;;;5.00;99.90;;;;;;5074033;28;20452;-65
2023/10/18 00:49:16;;;;;;;13.17;9.83;;;4.90;99.90;;;;;;5074004;28;20846;-65
2023/10/18 00:51:46;;;;;;;12.80;9.57;;;4.90;99.90;;;;;;5067851;28;20433;-68
2023/10/18 00:54:12;;;;;;;11.07;9.10;;;4.90;99.90;;;;;;5073819;28;20443;-68
2023/10/18 00:56:46;;;;;;;13.07;9.33;;;5.00;99.90;;;;;;5074440;28;20550;-66
2023/10/18 00:59:21;;;;;;;10.73;8.67;;;5.00;99.90;;;;;;5073922;28;20467;-67
2023/10/18 01:01:47;;;;;;;9.90;8.77;;;5.00;99.90;;;;;;5073742;28;20461;-66
2023/10/18 01:04:12;;;;;;;11.37;10.23;;;4.90;99.90;;;;;;5073991;28;20408;-66
2023/10/18 01:06:43;;;;;;;11.37;9.13;;;4.90;99.90;;;;;;5063087;28;20512;-66
2023/10/18 01:09:15;;;;;;;15.40;9.50;;;4.90;99.90;;;;;;5069393;28;20170;-67
2023/10/18 01:11:41;;;;;;;11.50;9.17;;;4.90;99.90;;;;;;5072967;28;20492;-66
2023/10/18 01:14:07;;;;;;;12.43;9.60;;;4.90;99.90;;;;;;5073521;28;20917;-66
2023/10/18 01:16:36;;;;;;;11.20;9.63;;;4.80;99.90;;;;;;5073210;28;20527;-66
2023/10/18 01:19:04;;;;;;;11.67;8.40;;;4.80;99.90;;;;;;5073234;28;20452;-66
2023/10/18 01:21:32;;;;;;;14.50;10.40;;;4.80;99.90;;;;;;5073266;28;20936;-66
2023/10/18 01:23:59;;;;;;;11.73;10.40;;;4.80;99.90;;;;;;5069264;28;20545;-67
2023/10/18 01:26:31;;;;;;;11.43;9.07;;;4.70;99.90;;;;;;5073303;28;20876;-66
2023/10/18 01:29:03;;;;;;;12.30;8.57;;;4.70;99.90;;;;;;5073406;28;20451;-66
2023/10/18 01:31:29;;;;;;;18.90;9.60;;;4.70;99.90;;;;;;5073153;28;20417;-67
2023/10/18 01:33:55;;;;;;;12.77;10.13;;;4.70;99.90;;;;;;5073496;28;20409;-67
2023/10/18 01:36:21;;;;;;;11.40;10.00;;;4.60;99.90;;;;;;5072657;28;20257;-66
2023/10/18 01:38:49;;;;;;;11.30;9.70;;;4.60;99.90;;;;;;5065881;28;20198;-68
2023/10/18 01:41:25;;;;;;;11.40;8.40;;;4.60;99.90;;;;;;5072752;28;20461;-66
2023/10/18 01:44:07;;;;;;;14.10;9.70;;;4.60;99.90;;;;;;5072620;28;20432;-66
2023/10/18 01:46:45;;;;;;;12.23;10.40;;;4.60;99.90;;;;;;5064656;23;21010;-62
2023/10/18 01:49:16;;;;;;;14.73;10.40;;;4.50;99.90;;;;;;5052382;28;20520;-63
2023/10/18 01:51:44;;;;;;;19.83;11.57;;;4.50;99.90;;;;;;5072554;28;20405;-63
2023/10/18 01:54:13;;;;;;;16.67;10.90;;;4.40;99.90;;;;;;5072221;28;20405;-63
2023/10/18 01:56:41;;;;;;;13.70;9.90;;;4.40;99.90;;;;;;5071758;28;20750;-62
2023/10/18 01:59:08;;;;;;;17.13;12.27;;;4.40;99.90;;;;;;5047706;28;20579;-63
2023/10/18 02:01:34;;;;;;;18.47;13.23;;;4.40;99.90;;;;;;5052928;28;20476;-64
2023/10/18 02:04:00;;;;;;;17.97;13.77;;;4.40;99.90;;;;;;5052596;28;20986;-63
2023/10/18 02:06:27;;;;;;;19.70;13.30;;;4.30;99.90;;;;;;5050477;28;20549;-63
2023/10/18 02:08:52;;;;;;;16.43;13.73;;;4.30;99.90;;;;;;5051493;28;20414;-63
2023/10/18 02:11:19;;;;;;;14.70;13.10;;;4.30;99.90;;;;;;5051652;28;20421;-62
2023/10/18 02:13:44;;;;;;;15.90;11.87;;;4.40;99.90;;;;;;5052250;28;20245;-63
2023/10/18 02:16:15;;;;;;;16.70;11.57;;;4.40;99.90;;;;;;5051828;28;20906;-63
2023/10/18 02:18:41;;;;;;;13.80;9.73;;;4.40;99.90;;;;;;5051750;28;20178;-62
2023/10/18 02:21:07;;;;;;;12.10;9.80;;;4.30;99.90;;;;;;5051848;28;20497;-62
2023/10/18 02:23:36;;;;;;;18.20;13.87;;;4.30;99.90;;;;;;5049507;28;20257;-62
2023/10/18 02:26:22;;;;;;;11.57;10.30;;;4.20;99.90;;;;;;5051343;28;20441;-63
2023/10/18 02:28:48;;;;;;;14.53;9.97;;;4.20;99.90;;;;;;5047528;28;20489;-63
2023/10/18 02:31:15;;;;;;;15.07;10.57;;;4.20;99.90;;;;;;5045143;28;20513;-63
2023/10/18 02:33:42;;;;;;;12.00;10.13;;;4.20;99.90;;;;;;5051392;28;20413;-64
2023/10/18 02:36:11;;;;;;;13.90;10.77;;;4.10;99.90;;;;;;5052141;28;20433;-63
2023/10/18 02:38:41;;;;;;;14.57;9.83;;;4.10;99.90;;;;;;5051731;28;20409;-63
2023/10/18 02:41:26;;;;;;;14.40;9.97;;;4.20;99.90;;;;;;5051934;28;20786;-63
2023/10/18 02:43:55;;;;;;;12.40;9.90;;;4.00;99.90;;;;;;5051581;28;20398;-63
2023/10/18 02:46:25;;;;;;;12.83;10.50;;;4.00;99.90;;;;;;5051157;28;20602;-63
2023/10/18 02:48:52;;;;;;;14.03;12.13;;;3.90;99.90;;;;;;5048953;28;20414;-63
2023/10/18 02:51:22;;;;;;;18.87;11.27;;;3.90;99.90;;;;;;5050633;28;20891;-63
2023/10/18 02:53:49;;;;;;;15.53;11.40;;;3.90;99.90;;;;;;5055381;28;20405;-63
2023/10/18 02:56:20;;;;;;;18.10;11.27;;;3.90;99.90;;;;;;5055616;28;20474;-63
2023/10/18 02:58:49;;;;;;;14.93;11.67;;;3.90;99.90;;;;;;5048301;28;20428;-63
2023/10/18 03:01:18;;;;;;;15.00;10.13;;;3.80;99.90;;;;;;5054955;28;20409;-63
2023/10/18 03:03:49;;;;;;;15.67;10.40;;;3.80;99.90;;;;;;5055646;28;20485;-66
2023/10/18 03:06:14;;;;;;;10.03;8.97;;;3.90;99.90;;;;;;5055185;28;20437;-63
2023/10/18 03:08:44;;;;;;;11.70;10.20;;;3.80;99.90;;;;;;5054802;28;20406;-63
2023/10/18 03:11:12;;;;;;;13.40;11.90;;;3.80;99.90;;;;;;5055264;28;20207;-63
2023/10/18 03:13:38;;;;;;;14.37;10.60;;;3.80;99.90;;;;;;5055029;28;20943;-63
2023/10/18 03:16:05;;;;;;;14.63;11.23;;;3.90;99.90;;;;;;5048346;28;20187;-63
2023/10/18 03:18:34;;;;;;;13.73;10.73;;;3.80;99.90;;;;;;5055493;28;20432;-63
2023/10/18 03:21:04;;;;;;;17.23;12.90;;;3.80;99.90;;;;;;5055669;28;20424;-62
2023/10/18 03:23:31;;;;;;;12.73;10.47;;;3.70;99.90;;;;;;5055116;28;20429;-62
2023/10/18 03:26:00;;;;;;;11.53;10.40;;;3.80;99.90;;;;;;5054878;28;20445;-63
2023/10/18 03:28:34;;;;;;;15.73;11.33;;;3.70;99.90;;;;;;5055201;28;20481;-63
2023/10/18 03:31:16;;;;;;;18.17;11.87;;;3.70;99.90;;;;;;5051959;28;20417;-63
2023/10/18 03:33:45;;;;;;;14.40;10.50;;;3.60;99.90;;;;;;5046674;28;20444;-63
2023/10/18 03:36:20;;;;;;;12.40;10.57;;;3.70;99.90;;;;;;5054906;28;20429;-63
2023/10/18 03:38:53;;;;;;;15.07;10.87;;;3.60;99.90;;;;;;5054826;28;20580;-63
2023/10/18 03:41:19;;;;;;;14.90;11.00;;;3.60;99.90;;;;;;5054686;28;20414;-63
2023/10/18 03:43:48;;;;;;;11.83;10.00;;;3.70;99.90;;;;;;5054808;28;20405;-65
2023/10/18 03:46:18;;;;;;;14.50;11.10;;;3.60;99.90;;;;;;5054410;28;20571;-62
2023/10/18 03:48:47;;;;;;;11.43;9.73;;;3.60;99.90;;;;;;5050577;28;21389;-62
2023/10/18 03:51:18;;;;;;;16.90;10.93;;;3.50;99.90;;;;;;5037278;28;20517;-63
2023/10/18 03:53:43;;;;;;;12.97;10.17;;;3.50;99.90;;;;;;5053636;28;20405;-63
2023/10/18 03:56:13;;;;;;;12.23;10.80;;;3.50;99.90;;;;;;5054364;28;20433;-63
2023/10/18 03:58:42;;;;;;;19.37;13.20;;;3.40;99.90;;;;;;5047840;28;20207;-63
2023/10/18 04:01:12;;;;;;;13.47;9.90;;;3.40;99.90;;;;;;5053444;28;20417;-63
2023/10/18 04:03:39;;;;;;;16.53;11.27;;;3.40;99.90;;;;;;5054662;28;20467;-63
2023/10/18 04:06:07;;;;;;;19.40;9.60;;;3.30;99.90;;;;;;5054278;28;20431;-63
2023/10/18 04:08:34;;;;;;;13.17;11.60;;;3.30;99.90;;;;;;5054342;28;20501;-63
2023/10/18 04:11:00;;;;;;;13.83;10.53;;;3.30;99.90;;;;;;5054425;28;20475;-63
2023/10/18 04:13:31;;;;;;;13.60;9.60;;;3.30;99.90;;;;;;5054197;28;20425;-63
2023/10/18 04:15:59;;;;;;;12.60;10.03;;;3.30;99.90;;;;;;5048958;28;20222;-63
2023/10/18 04:18:30;;;;;;;13.23;11.63;;;3.40;99.90;;;;;;5054184;28;20418;-63
2023/10/18 04:20:59;;;;;;;11.03;9.97;;;3.40;99.90;;;;;;5053837;28;20449;-63
2023/10/18 04:23:28;;;;;;;12.07;10.03;;;3.40;99.90;;;;;;5053718;28;20462;-62
2023/10/18 04:25:57;;;;;;;15.60;10.53;;;3.40;99.90;;;;;;5053509;28;20438;-63
2023/10/18 04:28:30;;;;;;;14.90;10.83;;;3.40;99.90;;;;;;5053831;28;20420;-63
2023/10/18 04:30:59;;;;;;;15.53;11.87;;;3.40;99.90;;;;;;5053697;28;20406;-62
2023/10/18 04:33:35;;;;;;;14.13;10.53;;;3.40;99.90;;;;;;5046608;28;20465;-63
2023/10/18 04:36:12;;;;;;;13.00;10.90;;;3.40;99.90;;;;;;5053855;28;20468;-63
2023/10/18 04:38:46;;;;;;;12.20;10.03;;;3.40;99.90;;;;;;5053503;28;20424;-62
2023/10/18 04:43:53;;;;;;;12.30;11.03;;;3.50;99.90;;;;;;5053768;28;20451;-63
2023/10/18 04:46:26;;;;;;;17.00;11.40;;;3.50;99.90;;;;;;5053556;28;20475;-64
2023/10/18 04:51:26;;;;;;;16.73;13.17;;;3.50;99.90;;;;;;5047945;28;20438;-63
2023/10/18 04:54:15;;;;;;;14.23;11.90;;;3.50;99.90;;;;;;5044745;28;20228;-63
2023/10/18 04:56:45;;;;;;;15.10;10.87;;;3.50;99.90;;;;;;5053606;28;20441;-63
2023/10/18 05:04:30;;;;;;;12.30;11.00;;;3.50;99.90;;;;;;5048374;28;20512;-61
2023/10/18 05:06:56;;;;;;;12.30;10.40;;;3.50;99.90;;;;;;5053316;28;20452;-58
2023/10/18 05:09:31;;;;;;;14.07;10.67;;;3.50;99.90;;;;;;5054403;28;20904;-63
2023/10/18 05:12:16;;;;;;;13.90;11.10;;;3.50;99.90;;;;;;5053258;28;20409;-62
2023/10/18 05:14:42;;;;;;;13.27;10.23;;;3.50;99.90;;;;;;5052169;28;20425;-62
2023/10/18 05:17:17;;;;;;;17.43;10.80;;;3.50;99.90;;;;;;5052779;28;20475;-63
2023/10/18 05:19:43;;;;;;;13.33;10.13;;;3.50;99.90;;;;;;5047382;28;20467;-59
2023/10/18 05:22:16;;;;;;;14.83;11.50;;;3.40;99.90;;;;;;5052900;28;20419;-61
2023/10/18 05:24:43;;;;;;;12.47;9.57;;;3.50;99.90;;;;;;5052564;28;20426;-62
2023/10/18 05:27:24;;;;;;;12.93;9.67;;;3.50;99.90;;;;;;5052473;28;20436;-66
2023/10/18 05:29:59;;;;;;;12.23;10.20;;;3.60;99.90;;;;;;5049948;28;20406;-64
2023/10/18 05:35:19;;;;;;;12.30;9.20;;;3.50;99.90;;;;;;5072444;28;20408;-62
2023/10/18 05:37:50;;;;;;;17.53;11.77;;;3.50;99.90;;;;;;5072904;28;20449;-63
2023/10/18 05:41:00;;;;;;;15.93;11.47;;;3.50;99.90;;;;;;5072659;28;20456;-62
2023/10/18 05:43:12;;;;;;;19.30;12.10;;;3.50;99.90;;;;;;5064023;28;20504;-62
2023/10/18 05:45:40;;;;;;;13.27;10.00;;;3.50;99.90;;;;;;5071963;28;20441;-62
2023/10/18 05:48:12;;;;;;;13.30;10.67;;;3.50;99.90;;;;;;5043143;28;20425;-63
2023/10/18 05:50:39;;;;;;;14.37;10.83;;;3.60;99.90;;;;;;5049226;28;20550;-63
2023/10/18 05:53:11;;;;;;;12.50;10.97;;;3.60;99.90;;;;;;5048927;28;20436;-63
2023/10/18 05:55:38;;;;;;;14.20;10.40;;;3.60;99.90;;;;;;5051500;28;20433;-62
2023/10/18 05:58:07;;;;;;;12.60;9.80;;;3.60;99.90;;;;;;5065582;28;20412;-62
2023/10/18 06:00:34;;;;;;;13.47;9.30;;;3.70;99.90;;;;;;5071886;28;20444;-62
2023/10/18 06:03:01;;;;;;;12.00;10.80;;;3.70;99.90;;;;;;5072052;28;20460;-62
2023/10/18 06:05:33;;;;;;;10.30;9.20;;;3.80;99.90;;;;;;5072074;28;20463;-62
2023/10/18 06:08:04;;;;;;;15.93;9.80;;;3.80;99.90;;;;;;5068082;28;20241;-63
2023/10/18 06:10:32;;;;;;;14.63;10.77;;;3.80;99.90;;;;;;5048112;28;20507;-63
2023/10/18 06:13:05;;;;;;;17.50;11.77;;;3.90;99.90;;;;;;5051633;28;20426;-63
2023/10/18 06:15:44;;;;;;;12.37;10.70;;;3.90;99.90;;;;;;5033919;28;20469;-60
2023/10/18 06:18:16;;;;;;;15.33;11.07;;;4.00;99.90;;;;;;5036220;28;20479;-61
2023/10/18 06:20:44;;;;;;;13.63;10.27;;;4.10;99.90;;;;;;5062508;28;20476;-61
2023/10/18 06:25:57;;;;;;;15.63;10.73;;;4.40;99.90;;;;;;5071995;28;20478;-59
2023/10/18 06:28:24;;;;;;;14.97;9.80;;;4.40;99.90;;;;;;5051874;28;20516;-62
2023/10/18 06:30:52;;;;;;;15.13;10.63;;;4.50;99.90;;;;;;5019911;28;20428;-62
2023/10/18 06:33:21;;;;;;;9.60;8.33;;;4.60;99.90;;;;;;5037328;28;20417;-61
2023/10/18 06:35:53;;;;;;;12.27;10.13;;;4.70;99.90;;;;;;5069084;28;20443;-63
2023/10/18 06:38:28;;;;;;;11.50;9.40;;;4.80;99.90;;;;;;5051702;28;20420;-59
2023/10/18 06:41:00;;;;;;;12.33;9.80;;;4.90;99.90;;;;;;5053785;28;20533;-61
2023/10/18 06:43:26;;;;;;;11.30;9.13;;;5.00;99.90;;;;;;5062716;28;20430;-61
2023/10/18 06:45:53;;;;;;;16.93;11.03;;;5.10;99.90;;;;;;5050911;28;20810;-58
2023/10/18 06:48:26;;;;;;;16.60;9.07;;;5.30;99.90;;;;;;5051668;28;20885;-62
2023/10/18 06:50:53;;;;;;;14.63;9.93;;;5.60;99.90;;;;;;5051392;28;20418;-61
2023/10/18 06:53:20;;;;;;;13.27;10.30;;;6.00;99.90;;;;;;5048580;28;20847;-64
2023/10/18 06:55:55;;;;;;;8.73;7.87;;;6.40;99.90;;;;;;5049017;28;20443;-62
2023/10/18 07:00:53;;;;;;;11.03;8.50;;;6.60;99.90;;;;;;5046933;28;20887;-59
2023/10/18 07:03:24;;;;;;;8.87;7.60;;;6.90;99.90;;;;;;5043252;28;20470;-64
2023/10/18 07:05:52;;;;;;;8.90;6.80;;;7.40;99.90;;;;;;5054086;28;20464;-60
2023/10/18 07:08:20;;;;;;;8.10;7.30;;;7.50;99.90;;;;;;5048791;28;20768;-59
2023/10/18 07:10:54;;;;;;;7.87;6.80;;;7.70;99.90;;;;;;5068437;28;20439;-60
2023/10/18 07:13:32;;;;;;;7.87;7.00;;;8.30;99.90;;;;;;5046003;28;20429;-61
2023/10/18 07:16:00;;;;;;;13.77;8.07;;;8.80;99.90;;;;;;5051373;28;20490;-60
2023/10/18 07:18:27;;;;;;;13.73;8.17;;;8.80;99.90;;;;;;5066688;28;20427;-61
2023/10/18 07:20:59;;;;;;;8.40;7.07;;;8.60;99.90;;;;;;5070963;28;20464;-64
2023/10/18 07:23:26;;;;;;;10.97;7.07;;;8.50;99.90;;;;;;5071107;28;20914;-62
2023/10/18 07:25:52;;;;;;;9.80;7.20;;;9.60;99.90;;;;;;5054146;28;20894;-62
2023/10/18 07:28:21;;;;;;;9.00;6.73;;;10.30;99.90;;;;;;5051071;28;20508;-61
2023/10/18 07:30:47;;;;;;;10.07;6.43;;;10.70;99.90;;;;;;5049519;28;20238;-62
2023/10/18 07:33:15;;;;;;;8.17;7.00;;;11.00;99.90;;;;;;5043260;28;20437;-62
2023/10/18 07:35:45;;;;;;;8.80;6.40;;;11.00;99.90;;;;;;5051870;28;20446;-61
2023/10/18 07:38:11;;;;;;;7.40;6.80;;;11.50;99.90;;;;;;5074917;28;20439;-61
2023/10/18 07:40:40;;;;;;;7.93;6.73;;;11.80;99.90;;;;;;5041250;28;20458;-61
2023/10/18 07:43:12;;;;;;;8.50;6.43;;;12.30;99.90;;;;;;5054134;28;20169;-59
2023/10/18 07:45:39;;;;;;;8.30;7.43;;;12.60;99.90;;;;;;5054305;28;20813;-63
2023/10/18 07:48:06;;;;;;;8.73;7.20;;;11.50;99.90;;;;;;5054672;28;20436;-61
2023/10/18 07:50:34;;;;;;;6.50;5.80;;;11.70;99.90;;;;;;5054732;28;20420;-64
2023/10/18 07:53:01;;;;;;;7.70;6.97;;;11.70;99.90;;;;;;5054902;28;20425;-63
2023/10/18 07:55:27;;;;;;;8.83;6.87;;;11.50;99.90;;;;;;5049249;28;20785;-63
2023/10/18 07:57:54;;;;;;;8.50;6.73;;;10.60;99.90;;;;;;5054411;28;20436;-62
2023/10/18 08:00:26;;;;;;;7.80;6.80;;;11.00;99.90;;;;;;5054120;28;20952;-60
2023/10/18 08:02:52;;;;;;;8.13;6.50;;;11.20;99.90;;;;;;5054223;28;20461;-62
2023/10/18 08:05:21;;;;;;;12.00;8.10;;;11.80;99.90;;;;;;5053705;28;20430;-62
2023/10/18 08:07:51;;;;;;;9.17;7.50;;;12.90;99.90;;;;;;5053636;28;20448;-61
2023/10/18 08:10:19;;;;;;;7.87;7.13;;;13.80;99.90;;;;;;5062521;28;20839;-62
2023/10/18 08:12:49;;;;;;;8.50;7.30;;;13.90;99.90;;;;;;5057666;28;20440;-62
2023/10/18 08:15:16;;;;;;;10.57;7.97;;;14.90;99.90;;;;;;5053602;28;20414;-63
2023/10/18 08:20:43;;;;;;;10.80;9.50;;;15.20;99.90;;;;;;5053953;28;20447;-63
2023/10/18 08:23:18;;;;;;;8.40;7.60;;;14.80;99.90;;;;;;5053767;28;20253;-63
2023/10/18 08:25:51;;;;;;;9.57;7.40;;;13.80;99.90;;;;;;5054142;28;20440;-64
2023/10/18 08:28:19;;;;;;;9.50;7.47;;;13.80;99.90;;;;;;5054414;28;20573;-60
2023/10/18 08:33:11;;;;;;;8.87;8.07;;;12.10;99.90;;;;;;5054142;28;20797;-60
2023/10/18 08:35:40;;;;;;;13.47;10.77;;;11.80;99.90;;;;;;5053760;28;20203;-60
2023/10/18 08:38:05;;;;;;;9.03;7.77;;;11.80;99.90;;;;;;5053611;28;20418;-62
2023/10/18 08:43:28;;;;;;;8.13;7.17;;;13.70;99.90;;;;;;5053312;28;20184;-62
2023/10/18 08:45:58;;;;;;;7.60;6.90;;;14.80;99.90;;;;;;5047749;28;20633;-63
2023/10/18 08:48:38;;;;;;;7.70;6.37;;;15.10;99.90;;;;;;5049324;28;20442;-62
2023/10/18 08:51:04;;;;;;;8.17;6.87;;;15.00;99.90;;;;;;5056772;28;20874;-62
2023/10/18 08:53:31;;;;;;;8.30;7.50;;;15.70;99.90;;;;;;5073006;28;20496;-65
2023/10/18 08:55:57;;;;;;;8.60;7.70;;;15.50;99.90;;;;;;5057442;28;20449;-64
2023/10/18 08:58:30;;;;;;;7.67;6.80;;;15.10;99.90;;;;;;5052498;28;20477;-61
2023/10/18 09:03:24;;;;;;;6.93;6.23;;;15.10;99.90;;;;;;5053041;28;20786;-61
2023/10/18 09:06:07;;;;;;;8.07;7.23;;;15.00;99.90;;;;;;5091346;23;20484;-65
2023/10/18 09:08:44;;;;;;;7.53;6.43;;;13.80;99.90;;;;;;5055303;28;20444;-64
2023/10/18 09:11:21;;;;;;;6.33;5.57;;;13.40;99.90;;;;;;5083603;28;20456;-65
2023/10/18 09:14:10;;;;;;;6.57;5.73;;;12.80;99.90;;;;;;5067242;28;20545;-64
2023/10/18 09:16:41;;;;;;;5.60;5.10;;;13.10;99.90;;;;;;5083163;28;20435;-66
2023/10/18 09:19:07;;;;;;;7.03;5.77;;;13.00;99.90;;;;;;5071840;28;20468;-66
2023/10/18 09:21:36;;;;;;;6.37;5.80;;;12.30;99.90;;;;;;5079492;28;20451;-64
2023/10/18 09:24:11;;;;;;;7.53;5.50;;;12.20;99.90;;;;;;5082271;28;20971;-65
2023/10/18 09:26:40;;;;;;;6.00;5.50;;;12.20;99.90;;;;;;5082998;28;20962;-65
2023/10/18 09:29:09;;;;;;;6.93;6.30;;;12.20;99.90;;;;;;5062746;28;20911;-66
2023/10/18 09:31:49;;;;;;;6.30;5.70;;;12.10;99.90;;;;;;5066174;28;20550;-67
2023/10/18 09:34:16;;;;;;;6.20;5.60;;;11.90;99.90;;;;;;5077333;28;20420;-64
2023/10/18 09:36:56;;;;;;;5.70;5.20;;;11.70;99.90;;;;;;5091243;28;20775;-64
2023/10/18 09:39:24;;;;;;;8.97;6.13;;;11.10;99.90;;;;;;5091352;28;20940;-63
2023/10/18 09:41:49;;;;;;;6.17;5.57;;;10.90;99.90;;;;;;5091462;28;20414;-64
2023/10/18 09:44:18;;;;;;;6.30;5.70;;;10.90;99.90;;;;;;5091545;28;20806;-64
2023/10/18 09:46:48;;;;;;;7.37;5.00;;;11.10;99.90;;;;;;5091694;28;20265;-63
2023/10/18 09:49:21;;;;;;;7.30;5.93;;;10.80;99.90;;;;;;5087110;28;20428;-63
2023/10/18 09:51:53;;;;;;;7.10;5.70;;;10.90;99.90;;;;;;5070823;28;20559;-65
2023/10/18 09:54:22;;;;;;;5.77;4.63;;;10.90;99.90;;;;;;5071025;28;20988;-64
2023/10/18 09:56:54;;;;;;;5.40;4.90;;;10.90;99.90;;;;;;5067894;28;20452;-64
2023/10/18 09:59:27;;;;;;;6.50;5.33;;;11.00;99.90;;;;;;5069751;28;20444;-64
2023/10/18 10:02:00;;;;;;;6.53;5.90;;;11.20;99.90;;;;;;5070665;28;20408;-64
2023/10/18 10:04:32;;;;;;;8.23;4.97;;;11.20;99.90;;;;;;5070748;28;20507;-65
2023/10/18 10:09:51;;;;;;;7.50;5.57;;;11.20;99.90;;;;;;5061234;28;20859;-61
2023/10/18 10:12:27;;;;;;;8.40;5.17;;;11.10;99.90;;;;;;5066511;28;20437;-64
2023/10/18 10:14:52;;;;;;;7.47;5.40;;;11.20;99.90;;;;;;5063121;28;20444;-64
2023/10/18 10:17:20;;;;;;;7.33;5.80;;;11.30;99.90;;;;;;5090868;28;20416;-64
2023/10/18 10:19:52;;;;;;;7.17;4.90;;;11.20;99.90;;;;;;5090497;28;20197;-64
2023/10/18 10:22:24;;;;;;;8.10;5.73;;;11.10;99.90;;;;;;5090235;28;20408;-63
2023/10/18 10:25:00;;;;;;;6.87;6.17;;;11.10;99.90;;;;;;5091087;28;20801;-65
2023/10/18 10:32:52;;;;;;;7.83;6.03;;;11.10;99.90;;;;;;5060715;28;20910;-64
2023/10/18 10:35:24;;;;;;;9.13;6.27;;;11.20;99.90;;;;;;5066089;28;20433;-65
2023/10/18 10:38:09;;;;;;;6.70;5.40;;;11.20;99.90;;;;;;5066540;28;21302;-65
2023/10/18 10:40:43;;;;;;;9.17;6.57;;;11.30;99.90;;;;;;5077682;28;20471;-64
2023/10/18 10:43:10;;;;;;;6.10;5.47;;;11.20;99.90;;;;;;5061731;28;20432;-64
2023/10/18 10:51:12;;;;;;;6.37;5.50;;;11.10;99.90;;;;;;5068386;28;20436;-65
2023/10/18 10:54:07;;;;;;;4.47;4.07;;;11.30;99.90;;;;;;5078818;28;20420;-66
2023/10/18 10:56:33;;;;;;;6.03;5.43;;;11.40;99.90;;;;;;5068143;28;20467;-64
2023/10/18 11:01:43;;;;;;;8.67;5.40;;;11.40;99.90;;;;;;5069710;28;20432;-66
2023/10/18 11:04:24;;;;;;;6.80;4.70;;;11.40;99.90;;;;;;5082780;28;20469;-65
2023/10/18 11:06:56;;;;;;;6.93;6.20;;;11.50;99.90;;;;;;5090291;28;20470;-65
2023/10/18 11:09:32;;;;;;;5.90;5.20;;;11.60;99.90;;;;;;5076589;28;20452;-64
2023/10/18 11:12:07;;;;;;;8.77;6.07;;;11.50;99.90;;;;;;5072116;28;20419;-64
2023/10/18 11:14:35;;;;;;;6.87;6.07;;;11.70;99.90;;;;;;5072033;28;20464;-64
2023/10/18 11:17:17;;;;;;;6.53;5.90;;;11.70;99.90;;;;;;5074271;28;20497;-65
2023/10/18 11:19:54;;;;;;;7.43;4.97;;;11.70;99.90;;;;;;5074156;28;20464;-64
2023/10/18 11:22:22;;;;;;;4.10;3.80;;;11.80;99.90;;;;;;5074178;28;20404;-65
2023/10/18 11:24:52;;;;;;;7.73;4.90;;;11.80;99.90;;;;;;5071885;28;20436;-62
2023/10/18 11:27:22;;;;;;;5.03;4.33;;;11.90;99.90;;;;;;5066947;28;20417;-63
2023/10/18 11:29:55;;;;;;;5.60;4.93;;;11.90;99.90;;;;;;5073597;28;20420;-63
2023/10/18 11:32:27;;;;;;;4.80;4.40;;;11.90;99.90;;;;;;5068479;28;20530;-65
2023/10/18 11:35:05;;;;;;;3.40;3.10;;;11.90;99.90;;;;;;5070724;28;20516;-64
2023/10/18 11:37:38;;;;;;;4.20;3.80;;;11.80;99.90;;;;;;5072757;28;20408;-65
2023/10/18 11:40:29;;;;;;;4.33;3.93;;;11.90;99.90;;;;;;5056641;28;20777;-65
2023/10/18 11:43:05;;;;;;;4.07;3.77;;;11.90;99.90;;;;;;5065419;28;20801;-65
2023/10/18 11:45:30;;;;;;;4.33;3.93;;;12.00;99.90;;;;;;5073321;28;20434;-65
2023/10/18 11:47:59;;;;;;;5.17;4.67;;;12.00;99.90;;;;;;5057998;28;20525;-63
2023/10/18 11:50:38;;;;;;;5.13;3.67;;;12.10;99.90;;;;;;5076979;28;20254;-64
2023/10/18 11:53:12;;;;;;;10.70;4.10;;;12.20;99.90;;;;;;5077997;28;20412;-65
2023/10/18 11:55:55;;;;;;;6.83;4.20;;;12.30;99.90;;;;;;5075857;28;20494;-64
2023/10/18 11:58:28;;;;;;;3.93;3.63;;;12.20;99.90;;;;;;5061495;28;20440;-65
2023/10/18 12:00:59;;;;;;;4.47;4.07;;;12.30;99.90;;;;;;5072072;28;20505;-65
2023/10/18 12:03:27;;;;;;;4.17;3.20;;;12.10;99.90;;;;;;5082824;28;20408;-64
2023/10/18 12:05:57;;;;;;;4.63;3.50;;;12.20;99.90;;;;;;5070104;28;20808;-65
2023/10/18 12:08:23;;;;;;;6.20;4.17;;;12.20;99.90;;;;;;5073176;28;20523;-65
2023/10/18 12:10:52;;;;;;;4.50;3.87;;;12.10;99.90;;;;;;5080879;28;21303;-60
2023/10/18 12:13:20;;;;;;;4.87;4.37;;;12.10;99.90;;;;;;5063651;28;20520;-64
2023/10/18 12:15:47;;;;;;;4.63;3.60;;;12.10;99.90;;;;;;5077369;28;20445;-64
2023/10/18 12:18:14;;;;;;;4.00;3.60;;;12.20;99.90;;;;;;5071000;28;20432;-64
2023/10/18 12:20:43;;;;;;;4.07;3.67;;;12.20;99.90;;;;;;5072885;28;20973;-64
2023/10/18 12:23:13;;;;;;;4.17;3.83;;;12.30;99.90;;;;;;5065324;28;20413;-65
2023/10/18 12:25:44;;;;;;;5.20;4.33;;;12.50;99.90;;;;;;5073419;28;20444;-65
2023/10/18 12:31:18;;;;;;;5.30;3.60;;;12.50;99.90;;;;;;5011848;28;20920;-64
2023/10/18 12:33:49;;;;;;;5.70;4.07;;;12.40;99.90;;;;;;5010832;28;21977;-64
2023/10/18 12:36:22;;;;;;;5.27;4.60;;;12.40;99.90;;;;;;5046558;28;20447;-66
2023/10/18 12:38:49;;;;;;;7.00;4.63;;;12.50;99.90;;;;;;5072549;28;20408;-65
2023/10/18 12:41:31;;;;;;;3.63;3.33;;;12.60;99.90;;;;;;5071300;28;20975;-68
2023/10/18 12:43:57;;;;;;;4.10;3.73;;;12.60;99.90;;;;;;5065659;28;20454;-61
2023/10/18 12:46:23;;;;;;;3.80;3.50;;;12.50;99.90;;;;;;5082327;28;20495;-65
2023/10/18 12:48:49;;;;;;;4.17;3.77;;;12.50;99.90;;;;;;5071452;28;20516;-64
2023/10/18 12:51:17;;;;;;;4.83;3.37;;;12.60;99.90;;;;;;5077409;28;20719;-64
2023/10/18 12:56:30;;;;;;;4.10;3.70;;;12.90;99.90;;;;;;5067668;28;20551;-64
2023/10/18 13:01:32;;;;;;;3.67;3.37;;;12.70;99.90;;;;;;5066426;28;20806;-65
2023/10/18 13:03:59;;;;;;;3.70;3.40;;;12.60;99.90;;;;;;5071275;28;20428;-64
2023/10/18 13:06:34;;;;;;;4.77;3.60;;;12.60;99.90;;;;;;5079936;28;20461;-65
2023/10/18 13:09:15;;;;;;;3.80;3.50;;;12.70;99.90;;;;;;5081205;28;20404;-64
2023/10/18 13:11:46;;;;;;;4.83;4.43;;;12.70;99.90;;;;;;5079077;28;20427;-65
2023/10/18 13:14:31;;;;;;;4.87;4.37;;;12.60;99.90;;;;;;5092327;28;20449;-63
2023/10/18 13:17:09;;;;;;;4.70;4.30;;;12.60;99.90;;;;;;5080994;28;20424;-65
2023/10/18 13:19:38;;;;;;;4.43;4.03;;;12.70;99.90;;;;;;5055984;28;20945;-64
2023/10/18 13:22:12;;;;;;;4.70;3.23;;;12.80;99.90;;;;;;5072730;28;20554;-65
2023/10/18 13:24:41;;;;;;;3.70;3.20;;;12.80;99.90;;;;;;5067880;28;20937;-64
2023/10/18 13:27:08;;;;;;;4.00;3.60;;;12.90;99.90;;;;;;5069404;28;20464;-63
2023/10/18 13:29:48;;;;;;;4.80;4.13;;;13.00;99.90;;;;;;5071651;28;20443;-65
2023/10/18 13:32:14;;;;;;;8.83;4.20;;;12.80;99.90;;;;;;5067585;28;20439;-63
2023/10/18 13:34:43;;;;;;;7.80;3.87;;;12.80;99.90;;;;;;5074033;28;20427;-66
2023/10/18 13:37:12;;;;;;;3.90;3.60;;;12.70;99.90;;;;;;5075226;28;20420;-65
2023/10/18 13:39:39;;;;;;;5.30;3.83;;;12.60;99.90;;;;;;5067965;28;20467;-65
2023/10/18 13:42:05;;;;;;;4.00;3.70;;;12.60;99.90;;;;;;5065847;28;20495;-63
2023/10/18 13:44:31;;;;;;;4.80;4.30;;;12.70;99.90;;;;;;5079320;28;20438;-63
2023/10/18 13:47:00;;;;;;;4.40;4.00;;;12.70;99.90;;;;;;5071135;28;20425;-64
2023/10/18 13:49:26;;;;;;;5.20;3.90;;;12.70;99.90;;;;;;5071036;28;20522;-65
2023/10/18 13:51:55;;;;;;;4.47;4.07;;;12.70;99.90;;;;;;5053018;28;20420;-65
2023/10/18 13:54:22;;;;;;;3.97;3.57;;;12.60;99.90;;;;;;5083406;28;20423;-63